sensor_id;sensor_type;location;lat;lon;timestamp;P1;durP1;ratioP1;P2;durP2;ratioP2
6111;SDS011;3086;48.802;9.394;2023-09-19T00:02:35;3.47;;;1.70;;
6111;SDS011;3086;48.802;9.394;2023-09-19T00:05:59;1.77;;;1.47;;
6111;SDS011;3086;48.802;9.394;2023-09-19T00:09:21;1.60;;;1.27;;
6111;SDS011;3086;48.802;9.394;2023-09-19T00:12:46;1.53;;;1.43;;
6111;SDS011;3086;48.802;9.394;2023-09-19T00:16:08;2.33;;;1.47;;
6111;SDS011;3086;48.802;9.394;2023-09-19T00:19:32;1.47;;;1.37;;
6111;SDS011;3086;48.802;9.394;2023-09-19T00:22:53;1.67;;;1.37;;
6111;SDS011;3086;48.802;9.394;2023-09-19T00:26:15;1.40;;;1.30;;
6111;SDS011;3086;48.802;9.394;2023-09-19T00:29:38;1.73;;;1.50;;
6111;SDS011;3086;48.802;9.394;2023-09-19T00:33:00;2.17;;;1.57;;
6111;SDS011;3086;48.802;9.394;2023-09-19T00:36:27;2.00;;;1.23;;
6111;SDS011;3086;48.802;9.394;2023-09-19T00:39:49;2.77;;;1.43;;
6111;SDS011;3086;48.802;9.394;2023-09-19T00:43:10;1.60;;;1.30;;
6111;SDS011;3086;48.802;9.394;2023-09-19T00:46:32;1.47;;;1.37;;
6111;SDS011;3086;48.802;9.394;2023-09-19T00:49:54;1.43;;;1.33;;
6111;SDS011;3086;48.802;9.394;2023-09-19T00:53:19;1.30;;;1.20;;
6111;SDS011;3086;48.802;9.394;2023-09-19T00:56:42;1.23;;;1.13;;
6111;SDS011;3086;48.802;9.394;2023-09-19T01:00:05;1.40;;;1.30;;
6111;SDS011;3086;48.802;9.394;2023-09-19T01:03:28;1.40;;;1.30;;
6111;SDS011;3086;48.802;9.394;2023-09-19T01:06:50;1.53;;;1.40;;
6111;SDS011;3086;48.802;9.394;2023-09-19T01:10:15;2.33;;;1.50;;
6111;SDS011;3086;48.802;9.394;2023-09-19T01:13:43;1.40;;;1.30;;
6111;SDS011;3086;48.802;9.394;2023-09-19T01:17:13;2.37;;;1.20;;
6111;SDS011;3086;48.802;9.394;2023-09-19T01:20:38;1.27;;;1.20;;
6111;SDS011;3086;48.802;9.394;2023-09-19T01:24:16;4.63;;;1.70;;
6111;SDS011;3086;48.802;9.394;2023-09-19T01:31:46;1.40;;;1.30;;
6111;SDS011;3086;48.802;9.394;2023-09-19T01:35:08;2.27;;;1.10;;
6111;SDS011;3086;48.802;9.394;2023-09-19T01:38:33;1.40;;;1.30;;
6111;SDS011;3086;48.802;9.394;2023-09-19T01:41:56;3.90;;;1.40;;
6111;SDS011;3086;48.802;9.394;2023-09-19T01:45:27;2.80;;;1.50;;
6111;SDS011;3086;48.802;9.394;2023-09-19T01:48:57;2.27;;;1.30;;
6111;SDS011;3086;48.802;9.394;2023-09-19T01:52:23;1.60;;;1.50;;
6111;SDS011;3086;48.802;9.394;2023-09-19T01:55:49;1.50;;;1.40;;
6111;SDS011;3086;48.802;9.394;2023-09-19T01:59:12;1.43;;;1.33;;
6111;SDS011;3086;48.802;9.394;2023-09-19T02:02:35;1.30;;;1.20;;
6111;SDS011;3086;48.802;9.394;2023-09-19T02:05:59;1.10;;;1.10;;
6111;SDS011;3086;48.802;9.394;2023-09-19T02:09:21;2.27;;;1.63;;
6111;SDS011;3086;48.802;9.394;2023-09-19T02:12:42;1.93;;;1.23;;
6111;SDS011;3086;48.802;9.394;2023-09-19T02:16:04;1.40;;;1.30;;
6111;SDS011;3086;48.802;9.394;2023-09-19T02:19:27;2.03;;;1.10;;
6111;SDS011;3086;48.802;9.394;2023-09-19T02:22:52;1.93;;;1.30;;
6111;SDS011;3086;48.802;9.394;2023-09-19T02:26:13;1.83;;;1.30;;
6111;SDS011;3086;48.802;9.394;2023-09-19T02:29:36;1.60;;;1.50;;
6111;SDS011;3086;48.802;9.394;2023-09-19T02:32:57;1.10;;;1.00;;
6111;SDS011;3086;48.802;9.394;2023-09-19T02:36:21;1.47;;;1.37;;
6111;SDS011;3086;48.802;9.394;2023-09-19T02:39:44;1.50;;;1.40;;
6111;SDS011;3086;48.802;9.394;2023-09-19T02:43:06;1.57;;;1.47;;
6111;SDS011;3086;48.802;9.394;2023-09-19T02:46:29;1.53;;;1.20;;
6111;SDS011;3086;48.802;9.394;2023-09-19T02:49:50;1.27;;;1.10;;
6111;SDS011;3086;48.802;9.394;2023-09-19T02:53:12;2.60;;;1.10;;
6111;SDS011;3086;48.802;9.394;2023-09-19T02:56:35;1.60;;;1.30;;
6111;SDS011;3086;48.802;9.394;2023-09-19T02:59:57;1.30;;;1.20;;
6111;SDS011;3086;48.802;9.394;2023-09-19T03:03:20;1.77;;;1.67;;
6111;SDS011;3086;48.802;9.394;2023-09-19T03:06:43;2.03;;;1.10;;
6111;SDS011;3086;48.802;9.394;2023-09-19T03:10:05;3.77;;;1.40;;
6111;SDS011;3086;48.802;9.394;2023-09-19T03:13:29;2.40;;;1.80;;
6111;SDS011;3086;48.802;9.394;2023-09-19T03:16:51;1.83;;;1.40;;
6111;SDS011;3086;48.802;9.394;2023-09-19T03:20:12;2.17;;;1.50;;
6111;SDS011;3086;48.802;9.394;2023-09-19T03:23:37;1.40;;;1.30;;
6111;SDS011;3086;48.802;9.394;2023-09-19T03:27:00;1.67;;;1.27;;
6111;SDS011;3086;48.802;9.394;2023-09-19T03:30:24;1.60;;;1.40;;
6111;SDS011;3086;48.802;9.394;2023-09-19T03:33:46;4.63;;;1.83;;
6111;SDS011;3086;48.802;9.394;2023-09-19T03:37:08;1.27;;;1.20;;
6111;SDS011;3086;48.802;9.394;2023-09-19T03:40:29;1.60;;;1.50;;
6111;SDS011;3086;48.802;9.394;2023-09-19T03:43:51;3.37;;;1.63;;
6111;SDS011;3086;48.802;9.394;2023-09-19T03:47:14;1.57;;;1.47;;
6111;SDS011;3086;48.802;9.394;2023-09-19T03:50:35;1.40;;;1.40;;
6111;SDS011;3086;48.802;9.394;2023-09-19T03:53:57;2.00;;;1.40;;
6111;SDS011;3086;48.802;9.394;2023-09-19T03:57:19;2.57;;;1.60;;
6111;SDS011;3086;48.802;9.394;2023-09-19T04:00:40;2.20;;;1.70;;
6111;SDS011;3086;48.802;9.394;2023-09-19T04:04:03;2.30;;;1.67;;
6111;SDS011;3086;48.802;9.394;2023-09-19T04:07:28;3.87;;;1.70;;
6111;SDS011;3086;48.802;9.394;2023-09-19T04:10:50;2.40;;;1.43;;
6111;SDS011;3086;48.802;9.394;2023-09-19T04:14:13;2.30;;;1.60;;
6111;SDS011;3086;48.802;9.394;2023-09-19T04:17:34;3.03;;;1.80;;
6111;SDS011;3086;48.802;9.394;2023-09-19T04:20:57;2.20;;;1.47;;
6111;SDS011;3086;48.802;9.394;2023-09-19T04:24:19;1.50;;;1.40;;
6111;SDS011;3086;48.802;9.394;2023-09-19T04:27:41;3.47;;;1.63;;
6111;SDS011;3086;48.802;9.394;2023-09-19T04:31:04;3.43;;;1.60;;
6111;SDS011;3086;48.802;9.394;2023-09-19T04:34:25;1.83;;;1.60;;
6111;SDS011;3086;48.802;9.394;2023-09-19T04:37:48;1.80;;;1.50;;
6111;SDS011;3086;48.802;9.394;2023-09-19T04:41:11;2.00;;;1.70;;
6111;SDS011;3086;48.802;9.394;2023-09-19T04:44:33;2.03;;;1.83;;
6111;SDS011;3086;48.802;9.394;2023-09-19T04:47:55;2.13;;;1.83;;
6111;SDS011;3086;48.802;9.394;2023-09-19T04:51:16;1.60;;;1.50;;
6111;SDS011;3086;48.802;9.394;2023-09-19T04:54:40;1.80;;;1.67;;
6111;SDS011;3086;48.802;9.394;2023-09-19T04:58:02;1.80;;;1.70;;
6111;SDS011;3086;48.802;9.394;2023-09-19T05:01:24;2.10;;;1.90;;
6111;SDS011;3086;48.802;9.394;2023-09-19T05:04:45;3.77;;;1.70;;
6111;SDS011;3086;48.802;9.394;2023-09-19T05:08:07;2.30;;;1.63;;
6111;SDS011;3086;48.802;9.394;2023-09-19T05:11:30;1.60;;;1.50;;
6111;SDS011;3086;48.802;9.394;2023-09-19T05:14:52;2.20;;;1.70;;
6111;SDS011;3086;48.802;9.394;2023-09-19T05:18:13;1.50;;;1.40;;
6111;SDS011;3086;48.802;9.394;2023-09-19T05:21:35;2.37;;;1.90;;
6111;SDS011;3086;48.802;9.394;2023-09-19T05:24:57;2.70;;;1.97;;
6111;SDS011;3086;48.802;9.394;2023-09-19T05:28:20;2.90;;;2.10;;
6111;SDS011;3086;48.802;9.394;2023-09-19T05:31:41;2.33;;;1.73;;
6111;SDS011;3086;48.802;9.394;2023-09-19T05:35:03;2.00;;;1.73;;
6111;SDS011;3086;48.802;9.394;2023-09-19T05:38:28;4.97;;;2.90;;
6111;SDS011;3086;48.802;9.394;2023-09-19T05:41:49;4.20;;;2.13;;
6111;SDS011;3086;48.802;9.394;2023-09-19T05:45:12;2.50;;;2.30;;
6111;SDS011;3086;48.802;9.394;2023-09-19T05:48:38;2.00;;;1.80;;
6111;SDS011;3086;48.802;9.394;2023-09-19T05:52:01;3.40;;;1.60;;
6111;SDS011;3086;48.802;9.394;2023-09-19T05:55:23;2.20;;;2.03;;
6111;SDS011;3086;48.802;9.394;2023-09-19T05:58:45;2.60;;;2.00;;
6111;SDS011;3086;48.802;9.394;2023-09-19T06:02:08;3.27;;;2.03;;
6111;SDS011;3086;48.802;9.394;2023-09-19T06:05:29;3.03;;;2.07;;
6111;SDS011;3086;48.802;9.394;2023-09-19T06:08:51;4.50;;;1.80;;
6111;SDS011;3086;48.802;9.394;2023-09-19T06:12:13;3.07;;;2.03;;
6111;SDS011;3086;48.802;9.394;2023-09-19T06:15:37;6.47;;;2.67;;
6111;SDS011;3086;48.802;9.394;2023-09-19T06:19:01;2.77;;;2.10;;
6111;SDS011;3086;48.802;9.394;2023-09-19T06:22:23;2.57;;;2.30;;
6111;SDS011;3086;48.802;9.394;2023-09-19T06:25:45;2.40;;;2.20;;
6111;SDS011;3086;48.802;9.394;2023-09-19T06:29:06;4.40;;;2.60;;
6111;SDS011;3086;48.802;9.394;2023-09-19T06:32:28;3.90;;;2.50;;
6111;SDS011;3086;48.802;9.394;2023-09-19T06:35:51;5.03;;;2.93;;
6111;SDS011;3086;48.802;9.394;2023-09-19T06:39:19;5.47;;;2.43;;
6111;SDS011;3086;48.802;9.394;2023-09-19T06:42:43;6.00;;;2.80;;
6111;SDS011;3086;48.802;9.394;2023-09-19T06:46:06;4.40;;;2.63;;
6111;SDS011;3086;48.802;9.394;2023-09-19T06:49:28;3.13;;;2.37;;
6111;SDS011;3086;48.802;9.394;2023-09-19T06:52:52;3.73;;;2.50;;
6111;SDS011;3086;48.802;9.394;2023-09-19T06:56:15;4.33;;;2.83;;
6111;SDS011;3086;48.802;9.394;2023-09-19T06:59:36;2.97;;;2.63;;
6111;SDS011;3086;48.802;9.394;2023-09-19T07:02:59;3.07;;;2.40;;
6111;SDS011;3086;48.802;9.394;2023-09-19T07:06:23;4.47;;;2.90;;
6111;SDS011;3086;48.802;9.394;2023-09-19T07:09:46;3.30;;;2.47;;
6111;SDS011;3086;48.802;9.394;2023-09-19T07:13:09;3.10;;;2.37;;
6111;SDS011;3086;48.802;9.394;2023-09-19T07:16:30;3.43;;;2.23;;
6111;SDS011;3086;48.802;9.394;2023-09-19T07:19:52;3.37;;;2.87;;
6111;SDS011;3086;48.802;9.394;2023-09-19T07:23:13;3.33;;;2.67;;
6111;SDS011;3086;48.802;9.394;2023-09-19T07:26:36;3.47;;;2.30;;
6111;SDS011;3086;48.802;9.394;2023-09-19T07:30:00;4.37;;;2.40;;
6111;SDS011;3086;48.802;9.394;2023-09-19T07:33:21;3.20;;;2.30;;
6111;SDS011;3086;48.802;9.394;2023-09-19T07:36:45;3.40;;;2.57;;
6111;SDS011;3086;48.802;9.394;2023-09-19T07:40:07;3.60;;;2.53;;
6111;SDS011;3086;48.802;9.394;2023-09-19T07:43:30;3.87;;;2.20;;
6111;SDS011;3086;48.802;9.394;2023-09-19T07:46:53;2.40;;;2.10;;
6111;SDS011;3086;48.802;9.394;2023-09-19T07:50:15;3.20;;;2.17;;
6111;SDS011;3086;48.802;9.394;2023-09-19T07:53:38;3.80;;;2.30;;
6111;SDS011;3086;48.802;9.394;2023-09-19T07:57:00;3.47;;;1.90;;
6111;SDS011;3086;48.802;9.394;2023-09-19T08:00:23;2.97;;;2.07;;
6111;SDS011;3086;48.802;9.394;2023-09-19T08:03:44;2.73;;;2.50;;
6111;SDS011;3086;48.802;9.394;2023-09-19T08:07:06;4.23;;;1.90;;
6111;SDS011;3086;48.802;9.394;2023-09-19T08:10:29;3.57;;;2.10;;
6111;SDS011;3086;48.802;9.394;2023-09-19T08:13:55;2.33;;;2.07;;
6111;SDS011;3086;48.802;9.394;2023-09-19T08:17:18;4.67;;;2.47;;
6111;SDS011;3086;48.802;9.394;2023-09-19T08:20:39;2.77;;;1.97;;
6111;SDS011;3086;48.802;9.394;2023-09-19T08:24:02;4.03;;;2.00;;
6111;SDS011;3086;48.802;9.394;2023-09-19T08:27:25;5.73;;;2.30;;
6111;SDS011;3086;48.802;9.394;2023-09-19T08:30:47;1.80;;;1.53;;
6111;SDS011;3086;48.802;9.394;2023-09-19T08:34:10;3.40;;;2.27;;
6111;SDS011;3086;48.802;9.394;2023-09-19T08:37:32;3.03;;;2.07;;
6111;SDS011;3086;48.802;9.394;2023-09-19T08:40:54;3.40;;;2.03;;
6111;SDS011;3086;48.802;9.394;2023-09-19T08:44:15;3.50;;;1.80;;
6111;SDS011;3086;48.802;9.394;2023-09-19T08:47:38;4.07;;;2.00;;
6111;SDS011;3086;48.802;9.394;2023-09-19T08:51:07;1.87;;;1.70;;
6111;SDS011;3086;48.802;9.394;2023-09-19T08:54:32;2.10;;;1.60;;
6111;SDS011;3086;48.802;9.394;2023-09-19T08:57:59;2.70;;;1.67;;
6111;SDS011;3086;48.802;9.394;2023-09-19T09:01:23;3.00;;;1.67;;
6111;SDS011;3086;48.802;9.394;2023-09-19T09:04:45;2.50;;;2.30;;
6111;SDS011;3086;48.802;9.394;2023-09-19T09:08:09;3.17;;;2.20;;
6111;SDS011;3086;48.802;9.394;2023-09-19T09:11:31;3.10;;;1.60;;
6111;SDS011;3086;48.802;9.394;2023-09-19T09:14:54;4.87;;;1.80;;
6111;SDS011;3086;48.802;9.394;2023-09-19T09:18:17;2.10;;;1.90;;
6111;SDS011;3086;48.802;9.394;2023-09-19T09:21:38;2.00;;;1.83;;
6111;SDS011;3086;48.802;9.394;2023-09-19T09:25:02;2.23;;;1.70;;
6111;SDS011;3086;48.802;9.394;2023-09-19T09:28:25;2.70;;;1.50;;
6111;SDS011;3086;48.802;9.394;2023-09-19T09:31:48;1.50;;;1.33;;
6111;SDS011;3086;48.802;9.394;2023-09-19T09:35:10;1.97;;;1.50;;
6111;SDS011;3086;48.802;9.394;2023-09-19T09:38:42;2.33;;;1.80;;
6111;SDS011;3086;48.802;9.394;2023-09-19T09:42:07;2.03;;;1.83;;
6111;SDS011;3086;48.802;9.394;2023-09-19T09:45:30;1.93;;;1.50;;
6111;SDS011;3086;48.802;9.394;2023-09-19T09:48:59;2.97;;;1.70;;
6111;SDS011;3086;48.802;9.394;2023-09-19T09:52:47;2.40;;;1.80;;
6111;SDS011;3086;48.802;9.394;2023-09-19T09:56:09;2.60;;;1.80;;
6111;SDS011;3086;48.802;9.394;2023-09-19T09:59:45;1.53;;;1.43;;
6111;SDS011;3086;48.802;9.394;2023-09-19T10:03:10;2.40;;;1.87;;
6111;SDS011;3086;48.802;9.394;2023-09-19T10:06:41;4.43;;;2.10;;
6111;SDS011;3086;48.802;9.394;2023-09-19T10:10:07;2.90;;;1.73;;
6111;SDS011;3086;48.802;9.394;2023-09-19T10:13:41;1.80;;;1.50;;
6111;SDS011;3086;48.802;9.394;2023-09-19T10:17:08;2.20;;;1.43;;
6111;SDS011;3086;48.802;9.394;2023-09-19T10:20:31;2.20;;;1.60;;
6111;SDS011;3086;48.802;9.394;2023-09-19T10:23:58;1.87;;;1.60;;
6111;SDS011;3086;48.802;9.394;2023-09-19T10:27:20;1.67;;;1.57;;
6111;SDS011;3086;48.802;9.394;2023-09-19T10:30:43;2.77;;;2.10;;
6111;SDS011;3086;48.802;9.394;2023-09-19T10:34:08;2.43;;;1.60;;
6111;SDS011;3086;48.802;9.394;2023-09-19T10:37:30;2.03;;;1.60;;
6111;SDS011;3086;48.802;9.394;2023-09-19T10:40:53;1.63;;;1.43;;
6111;SDS011;3086;48.802;9.394;2023-09-19T10:44:16;3.97;;;2.10;;
6111;SDS011;3086;48.802;9.394;2023-09-19T10:47:41;2.90;;;1.63;;
6111;SDS011;3086;48.802;9.394;2023-09-19T10:51:06;2.10;;;1.90;;
6111;SDS011;3086;48.802;9.394;2023-09-19T10:54:30;2.03;;;1.70;;
6111;SDS011;3086;48.802;9.394;2023-09-19T10:57:57;2.13;;;1.60;;
6111;SDS011;3086;48.802;9.394;2023-09-19T11:01:41;2.83;;;1.67;;
6111;SDS011;3086;48.802;9.394;2023-09-19T11:05:10;2.10;;;1.70;;
6111;SDS011;3086;48.802;9.394;2023-09-19T11:16:12;2.17;;;1.80;;
6111;SDS011;3086;48.802;9.394;2023-09-19T11:31:59;1.73;;;1.63;;
6111;SDS011;3086;48.802;9.394;2023-09-19T11:35:20;2.63;;;1.70;;
6111;SDS011;3086;48.802;9.394;2023-09-19T11:38:58;2.73;;;1.63;;
6111;SDS011;3086;48.802;9.394;2023-09-19T11:46:13;3.30;;;1.57;;
6111;SDS011;3086;48.802;9.394;2023-09-19T11:49:36;2.53;;;1.20;;
6111;SDS011;3086;48.802;9.394;2023-09-19T11:53:02;2.20;;;1.73;;
6111;SDS011;3086;48.802;9.394;2023-09-19T11:56:26;2.07;;;1.50;;
6111;SDS011;3086;48.802;9.394;2023-09-19T11:59:49;1.50;;;1.40;;
6111;SDS011;3086;48.802;9.394;2023-09-19T12:03:13;1.47;;;1.37;;
6111;SDS011;3086;48.802;9.394;2023-09-19T12:06:35;1.93;;;1.50;;
6111;SDS011;3086;48.802;9.394;2023-09-19T12:10:02;4.37;;;1.43;;
6111;SDS011;3086;48.802;9.394;2023-09-19T12:13:24;1.60;;;1.50;;
6111;SDS011;3086;48.802;9.394;2023-09-19T12:16:51;4.93;;;1.77;;
6111;SDS011;3086;48.802;9.394;2023-09-19T12:20:15;1.20;;;1.10;;
6111;SDS011;3086;48.802;9.394;2023-09-19T12:23:37;2.43;;;1.50;;
6111;SDS011;3086;48.802;9.394;2023-09-19T12:27:01;2.67;;;1.70;;
6111;SDS011;3086;48.802;9.394;2023-09-19T12:30:27;3.27;;;1.70;;
6111;SDS011;3086;48.802;9.394;2023-09-19T12:33:54;2.30;;;1.37;;
6111;SDS011;3086;48.802;9.394;2023-09-19T12:37:16;2.00;;;1.63;;
6111;SDS011;3086;48.802;9.394;2023-09-19T12:40:42;1.87;;;1.60;;
6111;SDS011;3086;48.802;9.394;2023-09-19T12:44:04;1.40;;;1.30;;
6111;SDS011;3086;48.802;9.394;2023-09-19T12:47:29;1.60;;;1.43;;
6111;SDS011;3086;48.802;9.394;2023-09-19T12:51:03;2.17;;;1.47;;
6111;SDS011;3086;48.802;9.394;2023-09-19T12:54:36;1.50;;;1.20;;
6111;SDS011;3086;48.802;9.394;2023-09-19T12:58:02;2.53;;;1.63;;
6111;SDS011;3086;48.802;9.394;2023-09-19T13:01:29;2.40;;;1.80;;
6111;SDS011;3086;48.802;9.394;2023-09-19T13:04:52;1.50;;;1.40;;
6111;SDS011;3086;48.802;9.394;2023-09-19T13:08:23;2.10;;;1.50;;
6111;SDS011;3086;48.802;9.394;2023-09-19T13:11:47;1.57;;;1.40;;
6111;SDS011;3086;48.802;9.394;2023-09-19T13:15:11;1.77;;;1.60;;
6111;SDS011;3086;48.802;9.394;2023-09-19T13:18:42;1.60;;;1.40;;
6111;SDS011;3086;48.802;9.394;2023-09-19T13:22:05;3.00;;;1.60;;
6111;SDS011;3086;48.802;9.394;2023-09-19T13:25:30;1.93;;;1.77;;
6111;SDS011;3086;48.802;9.394;2023-09-19T13:28:53;1.67;;;1.47;;
6111;SDS011;3086;48.802;9.394;2023-09-19T13:32:14;1.60;;;1.50;;
6111;SDS011;3086;48.802;9.394;2023-09-19T13:35:36;2.97;;;1.70;;
6111;SDS011;3086;48.802;9.394;2023-09-19T13:38:58;1.50;;;1.40;;
6111;SDS011;3086;48.802;9.394;2023-09-19T13:42:21;4.03;;;1.87;;
6111;SDS011;3086;48.802;9.394;2023-09-19T13:45:42;2.13;;;1.50;;
6111;SDS011;3086;48.802;9.394;2023-09-19T13:49:04;2.67;;;1.30;;
6111;SDS011;3086;48.802;9.394;2023-09-19T13:52:25;3.03;;;1.57;;
6111;SDS011;3086;48.802;9.394;2023-09-19T13:55:49;1.40;;;1.30;;
6111;SDS011;3086;48.802;9.394;2023-09-19T13:59:12;1.60;;;1.43;;
6111;SDS011;3086;48.802;9.394;2023-09-19T14:02:33;1.93;;;1.70;;
6111;SDS011;3086;48.802;9.394;2023-09-19T14:05:55;2.70;;;1.60;;
6111;SDS011;3086;48.802;9.394;2023-09-19T14:09:17;2.90;;;1.80;;
6111;SDS011;3086;48.802;9.394;2023-09-19T14:12:39;1.60;;;1.50;;
6111;SDS011;3086;48.802;9.394;2023-09-19T14:16:04;2.17;;;1.77;;
6111;SDS011;3086;48.802;9.394;2023-09-19T14:19:26;1.97;;;1.70;;
6111;SDS011;3086;48.802;9.394;2023-09-19T14:22:47;3.50;;;1.40;;
6111;SDS011;3086;48.802;9.394;2023-09-19T14:26:09;2.53;;;1.80;;
6111;SDS011;3086;48.802;9.394;2023-09-19T14:29:31;4.47;;;1.80;;
6111;SDS011;3086;48.802;9.394;2023-09-19T14:32:54;3.50;;;1.67;;
6111;SDS011;3086;48.802;9.394;2023-09-19T14:36:15;1.50;;;1.40;;
6111;SDS011;3086;48.802;9.394;2023-09-19T14:39:40;1.50;;;1.40;;
6111;SDS011;3086;48.802;9.394;2023-09-19T14:43:04;2.90;;;1.77;;
6111;SDS011;3086;48.802;9.394;2023-09-19T14:46:28;1.83;;;1.50;;
6111;SDS011;3086;48.802;9.394;2023-09-19T14:49:51;1.60;;;1.50;;
6111;SDS011;3086;48.802;9.394;2023-09-19T14:53:13;2.77;;;2.00;;
6111;SDS011;3086;48.802;9.394;2023-09-19T14:56:34;1.80;;;1.70;;
6111;SDS011;3086;48.802;9.394;2023-09-19T14:59:56;1.70;;;1.40;;
6111;SDS011;3086;48.802;9.394;2023-09-19T15:03:18;1.83;;;1.50;;
6111;SDS011;3086;48.802;9.394;2023-09-19T15:06:40;3.27;;;1.63;;
6111;SDS011;3086;48.802;9.394;2023-09-19T15:10:02;2.57;;;1.70;;
6111;SDS011;3086;48.802;9.394;2023-09-19T15:13:27;1.60;;;1.23;;
6111;SDS011;3086;48.802;9.394;2023-09-19T15:16:49;2.17;;;1.80;;
6111;SDS011;3086;48.802;9.394;2023-09-19T15:20:11;2.80;;;1.70;;
6111;SDS011;3086;48.802;9.394;2023-09-19T15:23:35;3.17;;;1.70;;
6111;SDS011;3086;48.802;9.394;2023-09-19T15:26:58;2.23;;;1.77;;
6111;SDS011;3086;48.802;9.394;2023-09-19T15:30:19;3.10;;;1.73;;
6111;SDS011;3086;48.802;9.394;2023-09-19T15:33:41;1.70;;;1.50;;
6111;SDS011;3086;48.802;9.394;2023-09-19T15:37:02;2.93;;;1.83;;
6111;SDS011;3086;48.802;9.394;2023-09-19T15:40:26;3.17;;;1.80;;
6111;SDS011;3086;48.802;9.394;2023-09-19T15:43:48;1.70;;;1.60;;
6111;SDS011;3086;48.802;9.394;2023-09-19T15:47:09;1.87;;;1.77;;
6111;SDS011;3086;48.802;9.394;2023-09-19T15:50:31;1.70;;;1.40;;
6111;SDS011;3086;48.802;9.394;2023-09-19T15:53:53;1.60;;;1.37;;
6111;SDS011;3086;48.802;9.394;2023-09-19T15:57:16;1.60;;;1.50;;
6111;SDS011;3086;48.802;9.394;2023-09-19T16:00:39;3.20;;;1.47;;
6111;SDS011;3086;48.802;9.394;2023-09-19T16:04:01;1.37;;;1.17;;
6111;SDS011;3086;48.802;9.394;2023-09-19T16:07:23;2.13;;;1.37;;
6111;SDS011;3086;48.802;9.394;2023-09-19T16:10:46;1.57;;;1.47;;
6111;SDS011;3086;48.802;9.394;2023-09-19T16:14:09;1.80;;;1.70;;
6111;SDS011;3086;48.802;9.394;2023-09-19T16:17:31;1.40;;;1.30;;
6111;SDS011;3086;48.802;9.394;2023-09-19T16:20:53;1.73;;;1.47;;
6111;SDS011;3086;48.802;9.394;2023-09-19T16:24:14;3.63;;;1.80;;
6111;SDS011;3086;48.802;9.394;2023-09-19T16:27:37;1.40;;;1.30;;
6111;SDS011;3086;48.802;9.394;2023-09-19T16:31:00;1.60;;;1.50;;
6111;SDS011;3086;48.802;9.394;2023-09-19T16:34:22;1.43;;;1.33;;
6111;SDS011;3086;48.802;9.394;2023-09-19T16:37:44;1.70;;;1.60;;
6111;SDS011;3086;48.802;9.394;2023-09-19T16:41:07;1.97;;;1.53;;
6111;SDS011;3086;48.802;9.394;2023-09-19T16:44:29;2.10;;;1.90;;
6111;SDS011;3086;48.802;9.394;2023-09-19T16:47:52;2.07;;;1.50;;
6111;SDS011;3086;48.802;9.394;2023-09-19T16:51:15;3.63;;;1.50;;
6111;SDS011;3086;48.802;9.394;2023-09-19T16:54:37;2.00;;;1.20;;
6111;SDS011;3086;48.802;9.394;2023-09-19T16:57:59;2.20;;;1.60;;
6111;SDS011;3086;48.802;9.394;2023-09-19T17:01:20;1.77;;;1.30;;
6111;SDS011;3086;48.802;9.394;2023-09-19T17:04:45;2.30;;;1.50;;
6111;SDS011;3086;48.802;9.394;2023-09-19T17:08:07;4.47;;;1.80;;
6111;SDS011;3086;48.802;9.394;2023-09-19T17:11:28;3.27;;;1.73;;
6111;SDS011;3086;48.802;9.394;2023-09-19T17:14:50;5.47;;;1.80;;
6111;SDS011;3086;48.802;9.394;2023-09-19T17:18:11;1.83;;;1.30;;
6111;SDS011;3086;48.802;9.394;2023-09-19T17:21:34;2.73;;;1.33;;
6111;SDS011;3086;48.802;9.394;2023-09-19T17:24:56;2.00;;;1.67;;
6111;SDS011;3086;48.802;9.394;2023-09-19T17:28:18;1.73;;;1.47;;
6111;SDS011;3086;48.802;9.394;2023-09-19T17:31:40;2.20;;;1.90;;
6111;SDS011;3086;48.802;9.394;2023-09-19T17:35:02;4.20;;;2.00;;
6111;SDS011;3086;48.802;9.394;2023-09-19T17:38:25;1.80;;;1.70;;
6111;SDS011;3086;48.802;9.394;2023-09-19T17:41:47;6.30;;;1.87;;
6111;SDS011;3086;48.802;9.394;2023-09-19T17:45:09;2.33;;;1.67;;
6111;SDS011;3086;48.802;9.394;2023-09-19T17:48:31;4.20;;;2.13;;
6111;SDS011;3086;48.802;9.394;2023-09-19T17:51:53;3.93;;;1.97;;
6111;SDS011;3086;48.802;9.394;2023-09-19T17:55:16;1.83;;;1.70;;
6111;SDS011;3086;48.802;9.394;2023-09-19T17:58:37;3.47;;;1.97;;
6111;SDS011;3086;48.802;9.394;2023-09-19T18:01:59;2.20;;;1.83;;
6111;SDS011;3086;48.802;9.394;2023-09-19T18:05:20;3.70;;;2.07;;
6111;SDS011;3086;48.802;9.394;2023-09-19T18:08:42;2.57;;;1.93;;
6111;SDS011;3086;48.802;9.394;2023-09-19T18:12:05;3.90;;;1.90;;
6111;SDS011;3086;48.802;9.394;2023-09-19T18:15:27;2.90;;;1.90;;
6111;SDS011;3086;48.802;9.394;2023-09-19T18:18:53;5.60;;;1.80;;
6111;SDS011;3086;48.802;9.394;2023-09-19T18:22:15;2.37;;;1.93;;
6111;SDS011;3086;48.802;9.394;2023-09-19T18:25:37;4.17;;;2.30;;
6111;SDS011;3086;48.802;9.394;2023-09-19T18:29:00;3.03;;;2.07;;
6111;SDS011;3086;48.802;9.394;2023-09-19T18:32:23;2.60;;;2.10;;
6111;SDS011;3086;48.802;9.394;2023-09-19T18:35:44;2.77;;;1.70;;
6111;SDS011;3086;48.802;9.394;2023-09-19T18:39:06;4.77;;;2.10;;
6111;SDS011;3086;48.802;9.394;2023-09-19T18:42:28;2.87;;;1.90;;
6111;SDS011;3086;48.802;9.394;2023-09-19T18:45:55;2.77;;;2.00;;
6111;SDS011;3086;48.802;9.394;2023-09-19T18:49:18;2.43;;;2.00;;
6111;SDS011;3086;48.802;9.394;2023-09-19T18:52:42;2.20;;;1.87;;
6111;SDS011;3086;48.802;9.394;2023-09-19T18:56:04;4.57;;;2.27;;
6111;SDS011;3086;48.802;9.394;2023-09-19T18:59:26;3.13;;;1.80;;
6111;SDS011;3086;48.802;9.394;2023-09-19T19:02:50;2.20;;;1.80;;
6111;SDS011;3086;48.802;9.394;2023-09-19T19:06:13;2.83;;;1.77;;
6111;SDS011;3086;48.802;9.394;2023-09-19T19:09:36;2.93;;;1.83;;
6111;SDS011;3086;48.802;9.394;2023-09-19T19:12:57;3.90;;;2.00;;
6111;SDS011;3086;48.802;9.394;2023-09-19T19:16:19;3.90;;;1.87;;
6111;SDS011;3086;48.802;9.394;2023-09-19T19:19:42;2.23;;;1.83;;
6111;SDS011;3086;48.802;9.394;2023-09-19T19:23:04;5.27;;;1.87;;
6111;SDS011;3086;48.802;9.394;2023-09-19T19:26:26;2.00;;;1.90;;
6111;SDS011;3086;48.802;9.394;2023-09-19T19:29:48;3.10;;;2.20;;
6111;SDS011;3086;48.802;9.394;2023-09-19T19:33:09;2.07;;;1.90;;
6111;SDS011;3086;48.802;9.394;2023-09-19T19:36:33;3.10;;;2.10;;
6111;SDS011;3086;48.802;9.394;2023-09-19T19:39:54;3.20;;;2.07;;
6111;SDS011;3086;48.802;9.394;2023-09-19T19:43:16;4.20;;;2.10;;
6111;SDS011;3086;48.802;9.394;2023-09-19T19:46:38;2.40;;;2.10;;
6111;SDS011;3086;48.802;9.394;2023-09-19T19:49:59;2.07;;;1.80;;
6111;SDS011;3086;48.802;9.394;2023-09-19T19:53:23;3.03;;;1.90;;
6111;SDS011;3086;48.802;9.394;2023-09-19T19:56:45;3.73;;;2.17;;
6111;SDS011;3086;48.802;9.394;2023-09-19T20:00:07;3.83;;;2.20;;
6111;SDS011;3086;48.802;9.394;2023-09-19T20:03:32;3.03;;;2.30;;
6111;SDS011;3086;48.802;9.394;2023-09-19T20:06:54;3.83;;;2.53;;
6111;SDS011;3086;48.802;9.394;2023-09-19T20:10:17;6.33;;;2.60;;
6111;SDS011;3086;48.802;9.394;2023-09-19T20:13:39;3.33;;;2.33;;
6111;SDS011;3086;48.802;9.394;2023-09-19T20:17:01;3.67;;;2.40;;
6111;SDS011;3086;48.802;9.394;2023-09-19T20:20:24;4.10;;;2.30;;
6111;SDS011;3086;48.802;9.394;2023-09-19T20:23:47;4.50;;;2.47;;
6111;SDS011;3086;48.802;9.394;2023-09-19T20:27:10;2.87;;;2.40;;
6111;SDS011;3086;48.802;9.394;2023-09-19T20:30:33;4.10;;;2.23;;
6111;SDS011;3086;48.802;9.394;2023-09-19T20:33:56;5.43;;;3.40;;
6111;SDS011;3086;48.802;9.394;2023-09-19T20:37:19;5.73;;;2.70;;
6111;SDS011;3086;48.802;9.394;2023-09-19T20:40:41;7.03;;;2.73;;
6111;SDS011;3086;48.802;9.394;2023-09-19T20:44:04;3.17;;;2.30;;
6111;SDS011;3086;48.802;9.394;2023-09-19T20:47:26;7.07;;;2.70;;
6111;SDS011;3086;48.802;9.394;2023-09-19T20:50:48;4.20;;;2.37;;
6111;SDS011;3086;48.802;9.394;2023-09-19T20:54:10;3.70;;;2.50;;
6111;SDS011;3086;48.802;9.394;2023-09-19T20:57:36;5.33;;;2.90;;
6111;SDS011;3086;48.802;9.394;2023-09-19T21:01:01;3.40;;;2.20;;
6111;SDS011;3086;48.802;9.394;2023-09-19T21:04:23;2.50;;;2.10;;
6111;SDS011;3086;48.802;9.394;2023-09-19T21:07:47;2.60;;;2.37;;
6111;SDS011;3086;48.802;9.394;2023-09-19T21:11:12;3.07;;;2.53;;
6111;SDS011;3086;48.802;9.394;2023-09-19T21:14:34;2.70;;;2.33;;
6111;SDS011;3086;48.802;9.394;2023-09-19T21:17:57;2.67;;;2.33;;
6111;SDS011;3086;48.802;9.394;2023-09-19T21:21:18;2.70;;;2.37;;
6111;SDS011;3086;48.802;9.394;2023-09-19T21:24:41;5.17;;;2.30;;
6111;SDS011;3086;48.802;9.394;2023-09-19T21:28:03;3.70;;;2.40;;
6111;SDS011;3086;48.802;9.394;2023-09-19T21:31:25;6.23;;;2.87;;